Flight Track Log - Related Links

Times and Time Zones

All times are in EDT time to prevent confusion due to time zone crossing. See the N100PM flight status page for this flight to view local times or setup timezone preferences in your user account.

Time Position Orientation Groundspeed Altitude Reporting Facility
EDT Latitude Longitude Course Direction KTS MPH feet Rate Location/Type
Sat 09:45:00 AM 26.3862 -81.4649 286° West  Level Estimated
Sat 09:46:00 AM 26.3916 -81.4774 296° West  Level FlightAware Approximate
Sat 09:47:00 AM 26.3970 -81.4898 296° West  Level FlightAware Approximate
Sat 09:48:00 AM 26.4024 -81.5022 296° West  Level FlightAware Approximate
Sat 09:49:00 AM 26.4078 -81.5147 296° West  Level FlightAware Approximate
Sat 09:50:00 AM 26.4132 -81.5271 296° West  Level FlightAware Approximate
Sat 09:51:00 AM 26.4185 -81.5395 296° West  Level FlightAware Approximate
Sat 09:52:00 AM 26.4239 -81.5519 296° West  Level FlightAware Approximate
Sat 09:53:00 AM 26.4293 -81.5644 296° West  Level FlightAware Approximate
Sat 09:54:00 AM 26.4347 -81.5768 296° West  Level FlightAware Approximate
Sat 09:55:00 AM 26.4401 -81.5893 296° West  Level FlightAware Approximate
Sat 09:56:00 AM 26.4454 -81.6017 296° West  Level FlightAware Approximate
Sat 09:57:00 AM 26.4508 -81.6142 296° West  Level FlightAware Approximate
Sat 09:58:00 AM 26.4562 -81.6266 296° West  Level FlightAware Approximate
Sat 09:59:00 AM 26.4616 -81.6390 296° West  Level FlightAware Approximate
Sat 10:00:00 AM 26.4670 -81.6515 296° West  Level FlightAware Approximate
Sat 10:01:00 AM 26.4553 -81.6561 104° East  Level Estimated
Sat 10:02:00 AM 26.4541 -81.6423 95° East  Level FlightAware Approximate
Sat 10:03:00 AM 26.4530 -81.6286 95° East  Level FlightAware Approximate
Sat 10:04:00 AM 26.4518 -81.6148 95° East  Level FlightAware Approximate
Sat 10:05:00 AM 26.4506 -81.6011 95° East  Level FlightAware Approximate
Sat 10:06:00 AM 26.4495 -81.5873 95° East  Level FlightAware Approximate
Sat 10:07:00 AM 26.4483 -81.5736 95° East  Level FlightAware Approximate
Sat 10:08:00 AM 26.4471 -81.5598 95° East  Level FlightAware Approximate
Sat 10:09:00 AM 26.4459 -81.5461 95° East  Level FlightAware Approximate
Sat 10:10:00 AM 26.4447 -81.5323 95° East  Level FlightAware Approximate
Sat 10:11:00 AM 26.4436 -81.5186 95° East  Level FlightAware Approximate
Sat 10:12:00 AM 26.4424 -81.5048 95° East  Level FlightAware Approximate
Sat 10:13:00 AM 26.4412 -81.4911 95° East  Level FlightAware Approximate
Sat 10:14:00 AM 26.4400 -81.4773 95° East  Level FlightAware Approximate
Sat 10:15:00 AM 26.4388 -81.4636 95° East  Level FlightAware Approximate
Sat 10:16:00 AM 26.4376 -81.4498 95° East  Level FlightAware Approximate
Sat 10:17:00 AM 26.4364 -81.4361 96° East  Level FlightAware Approximate
Sat 10:18:00 AM 26.4353 -81.4223 96° East  Level FlightAware Approximate
Sat 10:19:00 AM 26.4341 -81.4086 95° East  Level FlightAware Approximate
Sat 10:20:00 AM 26.4329 -81.3948 95° East  Level FlightAware Approximate
Sat 10:21:00 AM 26.4341 -81.4086 275° West  Level FlightAware Approximate
Sat 10:22:00 AM 26.4329 -81.3948 95° East  Level FlightAware Approximate
Sat 10:23:00 AM 26.4341 -81.4086 275° West  Level FlightAware Approximate
Sat 10:24:00 AM 26.4329 -81.3948 95° East  Level FlightAware Approximate
Sat 10:25:00 AM 26.4341 -81.4086 275° West  Level FlightAware Approximate
Sat 10:26:00 AM 26.4329 -81.3948 95° East  Level FlightAware Approximate
Sat 10:27:00 AM 26.4341 -81.4086 275° West  Level FlightAware Approximate
Sat 10:28:00 AM 26.4328 -81.4007 228° Southwest  Level FlightAware Approximate
Sat 10:29:00 AM 26.4244 -81.4109 228° Southwest  Level FlightAware Approximate
Sat 10:30:00 AM 26.4161 -81.4212 228° Southwest  Level FlightAware Approximate
Sat 10:31:00 AM 26.4079 -81.4314 228° Southwest  Level FlightAware Approximate
Sat 10:32:00 AM 26.3995 -81.4417 228° Southwest  Level FlightAware Approximate
Sat 10:33:00 AM 26.3913 -81.4519 228° Southwest  Level FlightAware Approximate
Sat 10:34:00 AM 26.3829 -81.4622 228° Southwest  Level FlightAware Approximate
Sat 10:35:00 AM 26.3746 -81.4724 228° Southwest  Level FlightAware Approximate
Sat 10:36:00 AM 26.3664 -81.4826 228° Southwest  Level FlightAware Approximate
Sat 10:37:00 AM 26.3580 -81.4928 228° Southwest  Level FlightAware Approximate
Sat 10:38:00 AM 26.3497 -81.5031 228° Southwest  Level FlightAware Approximate
Sat 10:39:00 AM 26.3414 -81.5133 228° Southwest  Level FlightAware Approximate
Sat 10:40:00 AM 26.3331 -81.5235 228° Southwest  Level FlightAware Approximate
Sat 10:41:00 AM 26.3248 -81.5338 228° Southwest  Level FlightAware Approximate
Sat 10:42:00 AM 26.3165 -81.5440 228° Southwest  Level FlightAware Approximate
Sat 10:43:00 AM 26.3082 -81.5542 228° Southwest  Level FlightAware Approximate
Sat 10:44:00 AM 26.2999 -81.5644 228° Southwest  Level FlightAware Approximate
Sat 10:45:00 AM 26.2916 -81.5746 228° Southwest  Level FlightAware Approximate
Sat 10:46:00 AM 26.2833 -81.5849 228° Southwest  Level FlightAware Approximate
Sat 10:47:00 AM 26.2750 -81.5951 228° Southwest  Level FlightAware Approximate
Sat 10:48:00 AM 26.2666 -81.6053 228° Southwest  Level FlightAware Approximate
Sat 10:49:00 AM 26.2583 -81.6155 228° Southwest  Level FlightAware Approximate
Sat 10:50:00 AM 26.2500 -81.6257 228° Southwest  Level FlightAware Approximate
Sat 10:51:00 AM 26.2417 -81.6359 228° Southwest  Level FlightAware Approximate
Sat 10:52:00 AM 26.2334 -81.6461 228° Southwest  Level FlightAware Approximate
Sat 10:53:00 AM 26.2251 -81.6563 228° Southwest  Level FlightAware Approximate
Sat 10:54:00 AM 26.2168 -81.6666 228° Southwest  Level FlightAware Approximate
Sat 10:55:00 AM 26.2107 -81.6786 241° Southwest  Level FlightAware Approximate
Sat 10:56:00 AM 26.2047 -81.6906 241° Southwest  Level FlightAware Approximate
Sat 10:57:00 AM 26.1982 -81.7023 230° Southwest  Level FlightAware Approximate
Sat 10:58:00 AM 26.1903 -81.7129 230° Southwest  Level FlightAware Approximate
Sat 10:59:00 AM 26.1824 -81.7235 230° Southwest  Level FlightAware Approximate
Sat 11:00:00 AM 26.1745 -81.7341 230° Southwest  Level FlightAware Approximate
Sat 11:01:00 AM 26.1665 -81.7447 230° Southwest  Level FlightAware Approximate
Sat 11:02:00 AM 26.1586 -81.7552 230° Southwest  Level FlightAware Approximate
Sat 11:03:00 AM 26.1507 -81.7658 230° Southwest  Level FlightAware Approximate
Sat 11:04:00 AM 26.1500 -81.7667 230° Southwest  Level FlightAware Approximate
Sat 11:05:00 AM 26.1524 -81.7756 230° Southwest  Level Estimated
Sat 11:06:00 AM 26.1524 -81.7756 230° Southwest  Level Estimated
Sat 11:07:00 AM 26.1524 -81.7756 230° Southwest  Level Estimated
Sat 11:08:00 AM 26.1524 -81.7756 230° Southwest  Level Estimated
Sat 11:09:00 AM 26.1524 -81.7756 230° Southwest  Level Estimated
Sat 11:10:00 AM 26.1524 -81.7756 230° Southwest  Level Estimated
Sat 11:11:00 AM 26.1524 -81.7756 230° Southwest  Level Estimated
Sat 11:12:00 AM 26.1524 -81.7756 230° Southwest  Level Estimated
Sat 11:13:00 AM 26.1524 -81.7756 230° Southwest  Level Estimated
Sat 11:14:00 AM 26.1524 -81.7756 230° Southwest  Level Estimated
Sat 11:15:00 AM 26.1524 -81.7756 230° Southwest  Level Estimated
Sat 11:16:00 AM 26.1524 -81.7756 230° Southwest  Level Estimated
Sat 11:17:00 AM 26.1524 -81.7756 230° Southwest  Level Estimated
Sat 11:18:00 AM 26.1524 -81.7756 230° Southwest  Level Estimated
Sat 11:19:00 AM 26.1524 -81.7756 230° Southwest  Level Estimated
Sat 11:20:00 AM 26.1524 -81.7756 230° Southwest  Level Estimated
Sat 11:21:00 AM 26.1524 -81.7756 230° Southwest  Level Estimated
Sat 11:22:00 AM 26.1524 -81.7756 230° Southwest  Level Estimated
Sat 11:23:00 AM 26.1524 -81.7756 230° Southwest  Level Estimated
Sat 11:24:00 AM 26.1524 -81.7756 230° Southwest  Level Estimated
Sat 11:25:00 AM 26.1524 -81.7756 230° Southwest  Level Estimated

Login

Don't have an account? Register now (free) for customized features, flight alerts, and more!